createdAt,value
2023-01-11T00:01:02.675Z,6.27
2023-01-11T00:03:31.040Z,7.03
2023-01-11T00:05:59.975Z,5.63
2023-01-11T00:08:28.460Z,5.87
2023-01-11T00:10:57.444Z,5.63
2023-01-11T00:13:24.972Z,5.13
2023-01-11T00:15:52.532Z,4.80
2023-01-11T00:18:20.043Z,5.47
2023-01-11T00:20:47.576Z,5.50
2023-01-11T00:23:15.130Z,5.00
2023-01-11T00:25:42.607Z,5.03
2023-01-11T00:28:11.428Z,5.93
2023-01-11T00:30:38.939Z,5.83
2023-01-11T00:33:06.442Z,5.73
2023-01-11T00:35:34.117Z,5.67
2023-01-11T00:38:01.662Z,5.33
2023-01-11T00:40:29.146Z,5.73
2023-01-11T00:43:13.474Z,5.63
2023-01-11T00:45:59.970Z,5.60
2023-01-11T00:48:27.531Z,5.30
2023-01-11T00:50:57.962Z,4.70
2023-01-11T00:53:25.472Z,4.40
2023-01-11T00:55:52.959Z,4.87
2023-01-11T00:58:20.494Z,4.70
2023-01-11T01:00:49.351Z,4.50
2023-01-11T01:03:16.868Z,4.53
2023-01-11T01:05:44.353Z,4.93
2023-01-11T01:08:11.829Z,5.03
2023-01-11T01:10:39.340Z,4.63
2023-01-11T01:13:24.588Z,5.30
2023-01-11T01:15:59.095Z,4.60
2023-01-11T01:18:26.607Z,4.90
2023-01-11T01:20:54.108Z,4.60
2023-01-11T01:23:21.578Z,4.40
2023-01-11T01:25:49.123Z,4.87
2023-01-11T01:28:18.775Z,5.53
2023-01-11T01:30:51.204Z,4.60
2023-01-11T01:33:20.259Z,5.23
2023-01-11T01:35:47.725Z,5.10
2023-01-11T01:38:15.407Z,5.33
2023-01-11T01:40:43.866Z,5.13
2023-01-11T01:43:12.853Z,6.03
2023-01-11T01:45:41.406Z,5.60
2023-01-11T01:48:11.363Z,5.40
2023-01-11T01:50:44.553Z,4.67
2023-01-11T01:53:15.590Z,5.47
2023-01-11T01:55:48.870Z,5.20
2023-01-11T01:58:20.018Z,5.77
2023-01-11T02:00:48.097Z,5.97
2023-01-11T02:03:20.250Z,5.33
2023-01-11T02:05:49.766Z,5.23
2023-01-11T02:08:23.808Z,5.93
2023-01-11T02:10:52.956Z,5.90
2023-01-11T02:13:21.706Z,5.23
2023-01-11T02:16:07.385Z,5.63
2023-01-11T02:18:35.620Z,5.87
2023-01-11T02:21:20.790Z,5.30
2023-01-11T02:24:29.728Z,4.87
2023-01-11T02:27:29.412Z,4.80
2023-01-11T02:30:08.900Z,4.70
2023-01-11T02:32:46.756Z,4.50
2023-01-11T02:35:21.543Z,4.13
2023-01-11T02:38:00.296Z,4.67
2023-01-11T02:40:38.163Z,4.57
2023-01-11T02:43:29.863Z,4.37
2023-01-11T02:46:03.033Z,4.43
2023-01-11T02:48:36.024Z,4.93
2023-01-11T02:51:09.405Z,4.63
2023-01-11T02:53:40.172Z,4.60
2023-01-11T02:56:12.339Z,4.80
2023-01-11T02:58:43.186Z,5.00
2023-01-11T03:01:13.594Z,4.30
2023-01-11T03:03:41.290Z,4.70
2023-01-11T03:06:16.149Z,4.70
2023-01-11T03:09:12.734Z,4.23
2023-01-11T03:12:11.458Z,4.50
2023-01-11T03:14:48.628Z,4.50
2023-01-11T03:17:27.689Z,4.57
2023-01-11T03:20:02.518Z,4.23
2023-01-11T03:22:37.260Z,4.80
2023-01-11T03:25:14.997Z,5.23
2023-01-11T03:27:51.544Z,5.60
2023-01-11T03:30:29.874Z,4.90
2023-01-11T03:33:04.691Z,4.30
2023-01-11T03:35:39.465Z,4.37
2023-01-11T03:38:11.315Z,4.40
2023-01-11T03:40:42.188Z,4.40
2023-01-11T03:43:12.576Z,5.03
2023-01-11T03:45:46.468Z,5.73
2023-01-11T03:48:18.921Z,5.87
2023-01-11T03:50:48.513Z,6.00
2023-01-11T03:53:19.189Z,6.33
2023-01-11T03:55:49.856Z,7.63
2023-01-11T03:58:17.461Z,7.87
2023-01-11T04:00:45.418Z,7.53
2023-01-11T04:03:14.624Z,9.00
2023-01-11T04:05:48.882Z,7.60
2023-01-11T04:08:16.411Z,8.87
2023-01-11T04:10:43.917Z,8.53
2023-01-11T04:13:11.415Z,9.47
2023-01-11T04:15:38.931Z,8.70
2023-01-11T04:18:07.199Z,7.97
2023-01-11T04:20:36.046Z,10.10
2023-01-11T04:23:06.569Z,8.47
2023-01-11T04:25:34.139Z,8.33
2023-01-11T04:28:01.680Z,7.77
2023-01-11T04:30:29.185Z,8.17
2023-01-11T04:32:58.405Z,8.70
2023-01-11T04:35:26.066Z,7.83
2023-01-11T04:37:54.827Z,9.33
2023-01-11T04:40:25.429Z,9.10
2023-01-11T04:42:52.018Z,8.70
2023-01-11T04:45:19.645Z,7.90
2023-01-11T04:47:47.176Z,8.53
2023-01-11T04:50:14.715Z,8.10
2023-01-11T04:52:42.245Z,9.40
2023-01-11T04:55:10.382Z,9.80
2023-01-11T04:57:39.242Z,9.73
2023-01-11T05:00:10.679Z,8.67
2023-01-11T05:02:38.242Z,9.73
2023-01-11T05:05:06.837Z,8.20
2023-01-11T05:07:34.511Z,9.07
2023-01-11T05:10:02.814Z,8.80
2023-01-11T05:12:30.300Z,8.30
2023-01-11T05:14:59.216Z,8.40
2023-01-11T05:17:26.735Z,8.10
2023-01-11T05:19:54.234Z,7.93
2023-01-11T05:22:21.725Z,7.90
2023-01-11T05:24:49.234Z,8.47
2023-01-11T05:27:16.704Z,7.87
2023-01-11T05:29:45.010Z,9.37
2023-01-11T05:32:14.028Z,9.73
2023-01-11T05:34:41.519Z,10.47
2023-01-11T05:37:09.019Z,9.50
2023-01-11T05:39:36.525Z,9.13
2023-01-11T05:42:04.103Z,8.60
2023-01-11T05:44:48.953Z,8.23
2023-01-11T05:47:18.815Z,8.60
2023-01-11T05:49:46.325Z,8.70
2023-01-11T05:52:13.804Z,9.33
2023-01-11T05:54:41.291Z,9.23
2023-01-11T05:57:11.501Z,8.60
2023-01-11T05:59:38.985Z,9.00
2023-01-11T06:02:06.604Z,8.90
2023-01-11T06:04:35.501Z,8.57
2023-01-11T06:07:03.100Z,8.40
2023-01-11T06:09:30.653Z,8.63
2023-01-11T06:11:58.133Z,8.67
2023-01-11T06:14:25.619Z,8.83
2023-01-11T06:16:53.179Z,8.87
2023-01-11T06:19:20.702Z,8.70
2023-01-11T06:21:49.506Z,8.17
2023-01-11T06:24:17.215Z,9.27
2023-01-11T06:26:44.694Z,9.77
2023-01-11T06:29:12.652Z,8.53
2023-01-11T06:31:40.240Z,9.00
2023-01-11T06:34:07.728Z,8.83
2023-01-11T06:36:37.806Z,9.13
2023-01-11T06:39:06.851Z,10.47
2023-01-11T06:41:34.335Z,9.80
2023-01-11T06:44:01.829Z,10.57
2023-01-11T06:46:29.446Z,10.50
2023-01-11T06:48:56.967Z,10.97
2023-01-11T06:51:24.449Z,11.00
2023-01-11T06:53:51.917Z,11.17
2023-01-11T06:56:20.739Z,11.27
2023-01-11T06:58:48.730Z,11.60
2023-01-11T07:01:17.536Z,11.23
2023-01-11T07:03:45.439Z,11.33
2023-01-11T07:06:13.776Z,10.77
2023-01-11T07:08:42.385Z,11.73
2023-01-11T07:11:10.203Z,11.23
2023-01-11T07:13:39.114Z,11.57
2023-01-11T07:16:06.964Z,12.07
2023-01-11T07:18:34.505Z,11.70
2023-01-11T07:21:02.370Z,11.87
2023-01-11T07:23:29.918Z,12.17
2023-01-11T07:25:57.419Z,12.17
2023-01-11T07:28:24.940Z,11.70
2023-01-11T07:30:58.681Z,12.03
2023-01-11T07:33:26.874Z,11.60
2023-01-11T07:35:54.907Z,12.00
2023-01-11T07:38:22.597Z,12.17
2023-01-11T07:40:50.083Z,12.37
2023-01-11T07:43:18.912Z,12.37
2023-01-11T07:45:49.210Z,11.90
2023-01-11T07:48:21.417Z,12.43
2023-01-11T07:50:49.589Z,12.23
2023-01-11T07:53:18.838Z,12.43
2023-01-11T07:55:47.108Z,12.23
2023-01-11T07:58:15.862Z,12.97
2023-01-11T08:00:43.655Z,12.63
2023-01-11T08:03:11.511Z,13.63
2023-01-11T08:05:40.637Z,13.50
2023-01-11T08:08:08.652Z,13.63
2023-01-11T08:10:36.189Z,13.07
2023-01-11T08:13:21.790Z,14.50
2023-01-11T08:15:49.296Z,13.83
2023-01-11T08:18:17.170Z,13.63
2023-01-11T08:20:47.525Z,14.10
2023-01-11T08:23:15.017Z,14.23
2023-01-11T08:25:42.559Z,14.73
2023-01-11T08:28:11.591Z,14.00
2023-01-11T08:30:39.393Z,12.90
2023-01-11T08:33:06.986Z,13.07
2023-01-11T08:35:39.250Z,13.27
2023-01-11T08:38:08.182Z,13.67
2023-01-11T08:40:35.955Z,13.77
2023-01-11T08:43:03.819Z,14.17
2023-01-11T08:45:31.376Z,14.83
2023-01-11T08:48:00.339Z,15.07
2023-01-11T08:50:28.113Z,15.40
2023-01-11T08:52:55.624Z,14.20
2023-01-11T08:55:24.440Z,15.17
2023-01-11T08:57:51.954Z,15.27
2023-01-11T09:00:20.887Z,14.97
2023-01-11T09:02:48.384Z,15.00
2023-01-11T09:05:18.169Z,13.37
2023-01-11T09:07:46.042Z,14.47
2023-01-11T09:10:13.562Z,14.73
2023-01-11T09:12:42.393Z,13.57
2023-01-11T09:15:10.718Z,15.03
2023-01-11T09:17:38.297Z,14.70
2023-01-11T09:20:06.910Z,13.33
2023-01-11T09:22:34.830Z,13.10
2023-01-11T09:25:02.594Z,13.63
2023-01-11T09:27:30.087Z,14.50
2023-01-11T09:29:58.931Z,14.40
2023-01-11T09:32:26.402Z,13.87
2023-01-11T09:34:57.841Z,14.23
2023-01-11T09:37:25.460Z,12.73
2023-01-11T09:39:53.055Z,12.10
2023-01-11T09:42:32.337Z,12.53
2023-01-11T09:45:08.894Z,13.33
2023-01-11T09:47:40.935Z,13.83
2023-01-11T09:50:14.518Z,14.17
2023-01-11T09:52:45.290Z,14.90
2023-01-11T09:55:19.842Z,16.13
2023-01-11T09:57:55.632Z,14.37
2023-01-11T10:00:33.550Z,13.67
2023-01-11T10:03:23.521Z,13.57
2023-01-11T10:06:00.180Z,12.93
2023-01-11T10:18:25.379Z,12.37
2023-01-11T10:18:26.162Z,13.37
2023-01-11T10:20:35.424Z,11.00
2023-01-11T10:23:09.845Z,12.83
2023-01-11T10:25:46.412Z,11.63
2023-01-11T10:28:22.951Z,12.07
2023-01-11T10:31:08.025Z,12.93
2023-01-11T10:34:09.156Z,11.63
2023-01-11T10:37:05.626Z,12.50
2023-01-11T10:39:59.100Z,10.70
2023-01-11T10:42:29.666Z,9.73
2023-01-11T10:45:03.653Z,8.53
2023-01-11T10:47:39.105Z,9.50
2023-01-11T10:50:18.879Z,8.77
2023-01-11T10:52:53.603Z,9.20
2023-01-11T10:55:28.369Z,8.27
2023-01-11T10:58:06.860Z,8.47
2023-01-11T11:00:44.401Z,8.40
2023-01-11T11:03:38.926Z,8.17
2023-01-11T11:06:15.579Z,8.73
2023-01-11T11:08:49.600Z,8.13
2023-01-11T11:11:22.539Z,9.37
2023-01-11T11:13:59.532Z,9.40
2023-01-11T11:16:50.703Z,9.27
2023-01-11T11:19:22.917Z,8.87
2023-01-11T11:21:52.344Z,8.63
2023-01-11T11:24:27.727Z,9.57
2023-01-11T11:27:04.368Z,9.27
2023-01-11T11:29:32.047Z,7.90
2023-01-11T11:32:00.956Z,8.03
2023-01-11T11:34:30.757Z,9.30
2023-01-11T11:37:01.762Z,7.97
2023-01-11T11:39:31.072Z,7.90
2023-01-11T11:42:06.538Z,8.83
2023-01-11T11:44:34.499Z,6.83
2023-01-11T11:47:03.552Z,6.93
2023-01-11T11:49:32.707Z,7.13
2023-01-11T11:52:03.602Z,7.07
2023-01-11T11:54:34.808Z,7.53
2023-01-11T11:57:16.457Z,7.47
2023-01-11T11:59:47.634Z,8.60
2023-01-11T12:02:24.532Z,8.97
2023-01-11T12:04:52.952Z,8.33
2023-01-11T12:07:25.132Z,9.30
2023-01-11T12:10:00.761Z,8.30
2023-01-11T12:12:29.735Z,7.60
2023-01-11T12:15:17.159Z,7.77
2023-01-11T12:17:44.669Z,7.10
2023-01-11T12:20:28.233Z,7.73
2023-01-11T12:23:15.165Z,7.23
2023-01-11T12:25:52.386Z,7.13
2023-01-11T12:28:31.678Z,7.73
2023-01-11T12:31:07.267Z,7.50
2023-01-11T12:33:44.428Z,8.20
2023-01-11T12:36:21.843Z,8.60
2023-01-11T12:39:02.734Z,8.33
2023-01-11T12:41:52.702Z,8.30
2023-01-11T12:44:33.940Z,8.90
2023-01-11T12:47:20.559Z,9.67
2023-01-11T12:49:58.769Z,9.93
2023-01-11T12:52:50.655Z,9.50
2023-01-11T12:55:31.575Z,9.23
2023-01-11T12:58:08.979Z,9.00
2023-01-11T13:00:56.699Z,8.33
2023-01-11T13:04:04.845Z,9.10
2023-01-11T13:06:40.762Z,8.57
2023-01-11T13:09:17.787Z,9.93
2023-01-11T13:11:58.398Z,9.63
2023-01-11T13:14:52.778Z,10.20
2023-01-11T13:17:29.011Z,11.33
2023-01-11T13:20:09.497Z,10.67
2023-01-11T13:22:41.593Z,10.30
2023-01-11T13:25:17.634Z,10.93
2023-01-11T13:27:48.013Z,11.03
2023-01-11T13:30:17.799Z,12.10
2023-01-11T13:32:51.205Z,11.20
2023-01-11T13:35:21.402Z,11.53
2023-01-11T13:37:55.827Z,10.57
2023-01-11T13:40:27.143Z,11.03
2023-01-11T13:43:00.345Z,11.03
2023-01-11T13:45:31.231Z,10.17
2023-01-11T13:48:07.076Z,11.03
2023-01-11T13:50:40.670Z,11.17
2023-01-11T13:53:16.607Z,10.70
2023-01-11T13:55:55.030Z,10.97
2023-01-11T13:58:29.430Z,10.93
2023-01-11T14:01:02.733Z,11.00
2023-01-11T14:03:34.734Z,10.57
2023-01-11T14:06:18.947Z,10.73
2023-01-11T14:09:10.225Z,11.37
2023-01-11T14:11:45.727Z,12.93
2023-01-11T14:14:29.647Z,11.73
2023-01-11T14:17:09.076Z,12.40
2023-01-11T14:19:44.475Z,12.13
2023-01-11T14:22:21.975Z,12.10
2023-01-11T14:24:57.408Z,11.10
2023-01-11T14:27:56.482Z,11.60
2023-01-11T14:30:40.277Z,10.57
2023-01-11T14:33:56.981Z,11.13
2023-01-11T14:36:49.852Z,11.80
2023-01-11T14:39:54.883Z,12.03
2023-01-11T14:43:01.622Z,11.40
2023-01-11T14:45:55.129Z,13.03
2023-01-11T14:48:30.925Z,12.73
2023-01-11T14:51:30.685Z,12.53
2023-01-11T14:54:06.921Z,11.80
2023-01-11T14:56:49.009Z,12.07
2023-01-11T14:59:34.743Z,12.63
2023-01-11T15:02:28.865Z,13.50
2023-01-11T15:05:34.587Z,12.83
2023-01-11T15:08:25.095Z,12.80
2023-01-11T15:10:58.299Z,12.37
2023-01-11T15:13:28.927Z,12.67
2023-01-11T15:16:27.170Z,13.33
2023-01-11T15:18:56.772Z,11.83
2023-01-11T15:21:26.956Z,12.57
2023-01-11T15:23:58.576Z,12.53
2023-01-11T15:26:27.875Z,13.17
2023-01-11T15:28:57.226Z,12.23
2023-01-11T15:31:34.497Z,11.63
2023-01-11T15:34:17.573Z,13.13
2023-01-11T15:37:05.431Z,13.97
2023-01-11T15:39:41.199Z,14.27
2023-01-11T15:42:37.717Z,13.87
2023-01-11T15:46:01.264Z,13.87
2023-01-11T15:48:39.843Z,15.00
2023-01-11T15:51:26.925Z,13.23
2023-01-11T15:54:15.432Z,13.93
2023-01-11T15:57:33.801Z,13.83
2023-01-11T16:00:23.635Z,14.77
2023-01-11T16:03:18.359Z,13.70
2023-01-11T16:06:12.024Z,12.93
2023-01-11T16:08:51.209Z,10.20
2023-01-11T16:11:28.433Z,12.03
2023-01-11T16:14:13.029Z,13.07
2023-01-11T16:16:43.810Z,10.27
2023-01-11T16:19:17.054Z,9.60
2023-01-11T16:21:49.571Z,10.90
2023-01-11T16:24:20.918Z,7.83
2023-01-11T16:26:53.577Z,8.40
2023-01-11T16:29:24.319Z,8.53
2023-01-11T16:31:53.665Z,10.70
2023-01-11T16:34:21.236Z,10.20
2023-01-11T16:36:49.301Z,11.33
2023-01-11T16:39:22.631Z,11.40
2023-01-11T16:41:55.953Z,11.20
2023-01-11T16:44:34.403Z,11.53
2023-01-11T16:47:08.205Z,10.53
2023-01-11T16:49:35.770Z,9.90
2023-01-11T16:52:47.026Z,9.67
2023-01-11T16:55:21.928Z,12.03
2023-01-11T16:57:54.007Z,11.20
2023-01-11T17:00:27.409Z,10.60
2023-01-11T17:03:02.743Z,13.27
2023-01-11T17:05:30.244Z,12.07
2023-01-11T17:07:57.728Z,11.27
2023-01-11T17:10:28.734Z,10.97
2023-01-11T17:13:46.175Z,11.87
2023-01-11T17:16:15.915Z,10.93
2023-01-11T17:18:44.535Z,11.17
2023-01-11T17:21:19.427Z,12.70
2023-01-11T17:23:48.284Z,12.33
2023-01-11T17:26:21.927Z,11.00
2023-01-11T17:28:52.657Z,10.20
2023-01-11T17:31:24.082Z,9.93
2023-01-11T17:34:01.277Z,9.57
2023-01-11T17:36:29.672Z,9.67
2023-01-11T17:38:58.899Z,9.20
2023-01-11T17:41:46.966Z,9.20
2023-01-11T17:44:35.831Z,8.90
2023-01-11T17:47:07.268Z,10.03
2023-01-11T17:49:36.387Z,12.87
2023-01-11T17:52:20.469Z,9.67
2023-01-11T17:54:48.245Z,10.37
2023-01-11T17:57:18.795Z,9.83
2023-01-11T17:59:46.267Z,10.60
2023-01-11T18:02:15.099Z,9.47
2023-01-11T18:04:43.660Z,9.80
2023-01-11T18:07:17.666Z,10.17
2023-01-11T18:09:47.848Z,10.00
2023-01-11T18:12:20.787Z,9.93
2023-01-11T18:14:52.337Z,10.53
2023-01-11T18:17:36.579Z,9.47
2023-01-11T18:20:25.678Z,11.23
2023-01-11T18:23:03.233Z,9.63
2023-01-11T18:25:34.507Z,9.70
2023-01-11T18:28:30.805Z,10.03
2023-01-11T18:31:01.841Z,10.73
2023-01-11T18:33:33.733Z,12.37
2023-01-11T18:36:03.200Z,12.50
2023-01-11T18:38:32.625Z,11.93
2023-01-11T18:41:24.777Z,12.90
2023-01-11T18:43:53.851Z,12.73
2023-01-11T18:46:21.448Z,10.50
2023-01-11T18:48:49.018Z,9.77
2023-01-11T18:51:18.927Z,11.13
2023-01-11T18:53:46.432Z,11.27
2023-01-11T18:56:16.179Z,12.93
2023-01-11T18:58:43.734Z,12.30
2023-01-11T19:01:12.801Z,12.27
2023-01-11T19:03:41.100Z,11.30
2023-01-11T19:06:12.783Z,11.00
2023-01-11T19:08:40.464Z,11.13
2023-01-11T19:11:08.028Z,10.27
2023-01-11T19:13:35.563Z,11.53
2023-01-11T19:16:03.128Z,11.23
2023-01-11T19:18:47.959Z,9.92
2023-01-11T19:21:15.813Z,11.43
2023-01-11T19:23:43.363Z,13.13
2023-01-11T19:26:10.893Z,10.63
2023-01-11T19:28:38.414Z,11.03
2023-01-11T19:31:07.420Z,11.53
2023-01-11T19:33:35.077Z,10.80
2023-01-11T19:36:08.212Z,10.40
2023-01-11T19:38:36.166Z,10.70
2023-01-11T19:41:05.363Z,12.10
2023-01-11T19:43:32.905Z,12.07
2023-01-11T19:46:01.991Z,11.70
2023-01-11T19:48:30.836Z,12.13
2023-01-11T19:51:02.066Z,10.90
2023-01-11T19:53:31.823Z,13.00
2023-01-11T19:56:01.633Z,12.03
2023-01-11T19:58:29.173Z,14.10
2023-01-11T20:00:56.773Z,10.27
2023-01-11T20:03:24.326Z,8.10
2023-01-11T20:05:51.843Z,8.03
2023-01-11T20:08:19.385Z,7.83
2023-01-11T20:10:50.025Z,8.50
2023-01-11T20:13:17.555Z,8.87
2023-01-11T20:15:45.150Z,7.70
2023-01-11T20:18:12.658Z,8.40
2023-01-11T20:20:40.177Z,8.80
2023-01-11T20:23:07.673Z,8.60
2023-01-11T20:25:35.160Z,6.87
2023-01-11T20:28:04.105Z,10.10
2023-01-11T20:30:31.583Z,10.17
2023-01-11T20:32:59.089Z,11.90
2023-01-11T20:35:26.578Z,10.43
2023-01-11T20:37:54.106Z,10.10
2023-01-11T20:40:21.598Z,10.70
2023-01-11T20:42:49.105Z,11.27
2023-01-11T20:45:18.003Z,10.60
2023-01-11T20:47:46.319Z,11.90
2023-01-11T20:50:13.800Z,13.40
2023-01-11T20:52:41.343Z,13.10
2023-01-11T20:55:10.051Z,12.00
2023-01-11T20:57:37.609Z,10.50
2023-01-11T21:00:07.517Z,10.57
2023-01-11T21:02:36.465Z,11.67
2023-01-11T21:05:04.463Z,12.23
2023-01-11T21:07:32.142Z,13.80
2023-01-11T21:10:00.044Z,8.97
2023-01-11T21:12:27.529Z,7.30
2023-01-11T21:14:55.015Z,9.53
2023-01-11T21:17:22.493Z,12.00
2023-01-11T21:19:51.348Z,13.77
2023-01-11T21:22:18.902Z,12.70
2023-01-11T21:24:48.260Z,11.47
2023-01-11T21:27:15.809Z,11.87
2023-01-11T21:29:43.340Z,10.00
2023-01-11T21:32:10.826Z,6.87
2023-01-11T21:34:38.346Z,8.47
2023-01-11T21:37:07.169Z,7.80
2023-01-11T21:39:34.657Z,9.00
2023-01-11T21:42:03.496Z,8.73
2023-01-11T21:44:33.480Z,8.77
2023-01-11T21:47:01.954Z,10.20
2023-01-11T21:49:29.528Z,8.17
2023-01-11T21:51:57.105Z,7.43
2023-01-11T21:54:26.261Z,7.37
2023-01-11T21:56:53.805Z,5.50
2023-01-11T21:59:21.542Z,8.13
2023-01-11T22:01:49.732Z,6.37
2023-01-11T22:04:19.466Z,8.73
2023-01-11T22:06:51.381Z,8.87
2023-01-11T22:09:19.913Z,6.43
2023-01-11T22:11:49.551Z,7.70
2023-01-11T22:14:17.061Z,9.57
2023-01-11T22:16:44.570Z,7.77
2023-01-11T22:19:12.576Z,9.00
2023-01-11T22:21:40.122Z,5.97
2023-01-11T22:24:10.468Z,5.37
2023-01-11T22:26:38.913Z,4.93
2023-01-11T22:29:18.407Z,4.50
2023-01-11T22:31:47.793Z,4.43
2023-01-11T22:34:15.705Z,4.90
2023-01-11T22:36:43.754Z,5.57
2023-01-11T22:39:11.906Z,5.33
2023-01-11T22:41:40.462Z,4.87
2023-01-11T22:44:10.127Z,4.47
2023-01-11T22:46:37.709Z,5.77
2023-01-11T22:49:05.955Z,6.27
2023-01-11T22:51:33.625Z,5.70
2023-01-11T22:54:01.131Z,4.80
2023-01-11T22:56:29.388Z,4.37
2023-01-11T22:58:58.178Z,4.43
2023-01-11T23:01:28.381Z,4.77
2023-01-11T23:03:56.794Z,5.20
2023-01-11T23:06:26.032Z,4.40
2023-01-11T23:08:54.411Z,4.20
2023-01-11T23:11:41.663Z,3.70
2023-01-11T23:14:11.374Z,3.93
2023-01-11T23:16:41.172Z,3.77
2023-01-11T23:19:09.843Z,3.63
2023-01-11T23:21:40.558Z,4.30
2023-01-11T23:24:09.160Z,3.60
2023-01-11T23:26:36.746Z,3.93
2023-01-11T23:29:05.384Z,4.07
2023-01-11T23:31:33.351Z,4.17
2023-01-11T23:34:04.136Z,4.03
2023-01-11T23:36:33.158Z,4.90
2023-01-11T23:39:00.990Z,4.00
2023-01-11T23:41:46.302Z,3.90
2023-01-11T23:44:15.620Z,3.77
2023-01-11T23:47:00.879Z,3.97
2023-01-11T23:49:30.856Z,4.33
2023-01-11T23:51:58.740Z,4.30
2023-01-11T23:54:27.914Z,5.33
2023-01-11T23:56:55.503Z,4.47
2023-01-11T23:59:23.283Z,5.33
